Latest Weather Observations for Forrest

IDW60801

Issued at 6:02 pm WST Tuesday 28 July 2015 (issued every 30 minutes, with the page automatically refreshed every 10 minutes)

About weather observations | Map of weather stations | Latest weather observations for WA | Other Formats
Station Details ID: 011052 Name: FORREST Lat: -30.85 Lon: 128.11 Height: 159.0 m
Data from the previous 72 hours. | See also: Recent months at Forrest
Date/Time
WST
Temp
°C
App
Temp
°C
Dew
Point
Rel
Hum
%
Delta-T
°C
Wind Press
QNH
hPa
Press
MSL
hPa
Rain
since 9 am
mm
Dir
 
Spd
km/h
Gust
km/h
Spd
kts
Gust
kts
28/06:00pm 13.2 8.5 0.6 42 5.3 NE 15 17 8 9 1025.0 1025.1 0.0
28/05:30pm 13.9 8.7 0.2 39 5.8 NE 17 20 9 11 1024.7 - 0.0
28/05:00pm 15.4 9.2 0.0 35 6.6 NE 22 26 12 14 1024.9 - 0.0
28/04:30pm 16.0 9.5 0.2 34 6.8 NE 24 30 13 16 1024.6 - 0.0
28/04:00pm 16.4 9.1 0.1 33 7.0 NE 28 35 15 19 1025.0 - 0.0
28/03:30pm 16.7 9.4 -0.1 32 7.3 NE 28 35 15 19 1025.4 - 0.0
28/03:00pm 16.9 10.1 0.5 33 7.1 NE 26 39 14 21 1026.1 1026.2 0.0
28/02:30pm 17.2 10.8 0.8 33 7.2 NE 24 30 13 16 1026.8 - 0.0
28/02:00pm 17.0 10.9 0.6 33 7.2 NNE 22 30 12 16 1027.4 - 0.0
28/01:30pm 17.3 11.3 1.3 34 7.2 NNE 22 28 12 15 1027.6 - 0.0
28/01:00pm 16.7 10.7 1.2 35 6.9 NNE 22 30 12 16 1028.2 - 0.0
28/12:30pm 16.5 11.1 2.2 38 6.5 N 20 28 11 15 1028.8 - 0.0
28/12:00pm 16.5 10.2 1.8 37 6.5 N 24 33 13 18 1029.4 1029.6 0.0
28/11:30am 16.3 9.7 2.0 38 6.4 N 26 32 14 17 1030.3 - 0.0
28/11:00am 16.0 9.0 2.1 39 6.2 N 28 37 15 20 1031.5 - 0.0
28/10:30am 15.0 7.7 2.5 43 5.6 N 30 37 16 20 1032.0 - 0.0
28/10:00am 14.1 6.5 3.0 47 5.0 NNE 32 43 17 23 1032.2 - 0.0
28/09:30am 12.3 4.8 3.3 54 4.0 NNE 32 41 17 22 1032.4 - 0.0
28/09:00am 11.7 5.1 4.0 59 3.4 NNE 28 35 15 19 1033.3 1033.5 0.0
28/08:30am 9.4 3.6 4.4 71 2.2 NNE 24 30 13 16 1033.5 - 0.0
28/08:00am 7.4 3.3 4.5 82 1.3 NE 15 20 8 11 1033.6 - 0.0
28/07:30am 4.4 1.0 3.8 96 0.2 NE 11 15 6 8 1033.2 - 0.0
28/07:00am 2.5 -1.6 2.4 99 0.0 ENE 13 15 7 8 1032.9 - 0.0
28/06:30am 0.8 -2.8 0.7 99 0.0 ENE 9 11 5 6 1032.9 - 0.0
28/06:00am 0.7 -3.7 0.6 99 0.0 ENE 13 15 7 8 1032.6 1032.8 0.0
28/05:30am 1.3 -2.2 1.0 98 0.1 ENE 9 11 5 6 1032.5 - 0.0
28/05:00am 1.3 -2.6 1.0 98 0.1 ENE 11 13 6 7 1032.4 - 0.0
28/04:30am 1.4 -2.9 1.1 98 0.1 ENE 13 15 7 8 1032.0 - 0.0
28/04:00am 1.8 -2.4 1.5 98 0.1 NE 13 15 7 8 1031.8 - 0.0
28/03:30am 2.1 -2.5 1.8 98 0.1 ENE 15 15 8 8 1031.7 - 0.0
28/03:00am 2.2 -2.0 1.9 98 0.1 ENE 13 15 7 8 1031.8 1031.9 0.0
28/02:30am 2.2 -2.3 1.9 98 0.1 ENE 15 17 8 9 1032.2 - 0.0
28/02:00am 2.3 -1.5 1.9 97 0.2 ENE 11 13 6 7 1032.8 - 0.0
28/01:30am 2.7 -1.8 2.1 96 0.2 E 15 17 8 9 1033.0 - 0.0
28/01:00am 2.9 -1.2 2.2 95 0.3 E 13 15 7 8 1033.8 - 0.0
28/12:30am 4.3 0.1 3.6 95 0.3 E 15 17 8 9 1034.1 - 0.0
28/12:00am 5.1 1.4 4.4 95 0.3 E 13 15 7 8 1034.2 1034.4 0.0
 
Date/Time
WST
Temp
°C
App
Temp
°C
Dew
Point
Rel
Hum
%
Delta-T
°C
Wind Press
QNH
hPa
Press
MSL
hPa
Rain
since 9 am
mm
Dir
 
Spd
km/h
Gust
km/h
Spd
kts
Gust
kts
27/11:30pm 5.3 1.9 4.1 92 0.5 E 11 13 6 7 1034.3 - 0.0
27/11:00pm 5.9 2.6 4.5 91 0.6 E 11 13 6 7 1034.3 - 0.0
27/10:30pm 6.1 1.3 4.4 89 0.7 E 19 20 10 11 1032.8 - 0.0
27/10:00pm 6.2 1.3 4.0 86 0.9 E 19 22 10 12 1033.0 - 0.0
27/09:30pm 6.7 1.6 3.9 82 1.2 ENE 20 24 11 13 1032.8 - 0.0
27/09:00pm 6.8 1.7 3.9 82 1.2 E 20 26 11 14 1033.4 1033.6 0.0
27/08:30pm 6.2 1.8 2.7 78 1.5 E 15 19 8 10 1033.9 - 0.0
27/08:00pm 6.8 2.3 2.3 73 1.9 E 15 15 8 8 1034.1 - 0.0
27/07:30pm 7.9 2.8 2.8 70 2.2 E 19 20 10 11 1034.1 - 0.0
27/07:00pm 8.9 4.2 2.9 66 2.6 E 17 19 9 10 1034.3 - 0.0
27/06:30pm 9.3 4.6 3.1 65 2.7 E 17 19 9 10 1034.2 - 0.0
27/06:00pm 10.6 6.3 3.2 60 3.2 ESE 15 17 8 9 1034.1 1034.3 0.0
27/05:30pm 11.2 6.9 3.3 58 3.5 ESE 15 19 8 10 1034.1 - 0.0
27/05:00pm 11.8 7.8 3.1 55 3.9 E 13 13 7 7 1033.9 - 0.0
27/04:30pm 13.7 9.5 3.8 51 4.5 ESE 15 20 8 11 1033.8 - 0.0
27/04:00pm 14.7 10.9 3.8 48 5.0 E 13 19 7 10 1033.5 - 0.0
27/03:30pm 14.9 10.7 4.0 48 5.1 E 15 24 8 13 1033.5 - 0.0
27/03:13pm 14.9 11.1 3.7 47 5.2 ESE 13 104 7 56 1033.5 - 0.0
27/03:11pm 15.3 3.7 3.8 46 5.3 E 54 104 29 56 1033.5 - 0.0
27/03:10pm 15.3 -0.4 4.1 47 5.2 ENE 76 104 41 56 1033.5 - 0.0
27/03:09pm 15.2 7.8 4.0 47 5.2 ENE 32 104 17 56 1033.5 - 0.0
27/03:00pm 14.9 11.0 3.4 46 5.2 ESE 13 24 7 13 1033.5 1033.7 0.0
27/02:30pm 15.2 11.8 4.0 47 5.2 ESE 11 17 6 9 1033.7 - 0.0
27/02:00pm 14.8 11.8 3.9 48 5.0 SSW 9 13 5 7 1033.8 - 0.0
27/01:30pm 15.4 12.5 4.5 48 5.1 ESE 9 19 5 10 1034.0 - 0.0
27/01:00pm 14.6 12.1 4.6 51 4.7 S 7 13 4 7 1034.3 - 0.0
27/12:47pm 15.2 7.7 4.3 48 5.1 ENE 33 104 18 56 1034.5 - 0.0
27/12:45pm 15.0 -6.1 4.1 48 5.1 E 104 107 56 58 1034.5 - 0.0
27/12:44pm 15.2 2.5 4.9 50 4.9 E 61 107 33 58 1034.5 - 0.0
27/12:43pm 14.9 11.6 4.3 49 4.9 SE 11 107 6 58 1034.5 - 0.0
27/12:38pm 14.2 5.0 3.4 48 4.9 S 41 107 22 58 1034.6 - 0.0
27/12:35pm 15.4 4.0 5.0 50 4.9 NNE 54 106 29 57 1034.7 - 0.0
27/12:32pm 15.0 -6.0 4.4 49 5.0 N 104 104 56 56 1034.7 - 0.0
27/12:31pm 14.8 0.4 4.2 49 4.9 N 69 104 37 56 1034.8 - 0.0
27/12:30pm 14.8 11.8 4.2 49 4.9 N 9 102 5 55 1034.8 - 0.0
27/12:21pm 15.3 10.0 5.2 51 4.8 NNE 22 106 12 57 1035.0 - 0.0
27/12:20pm 15.0 0.6 5.0 51 4.7 N 70 106 38 57 1035.0 - 0.0
27/12:19pm 15.0 -1.4 4.7 50 4.9 E 80 106 43 57 1035.0 - 0.0
27/12:18pm 14.8 1.0 5.1 52 4.6 ESE 67 106 36 57 1035.1 - 0.0
27/12:00pm 13.6 10.6 4.2 53 4.3 ESE 9 15 5 8 1035.4 1035.6 0.0
27/11:30am 13.5 10.6 4.9 56 4.0 SSE 9 13 5 7 1035.6 - 0.0
27/11:16am 13.2 10.9 4.6 56 4.0 WSW 6 106 3 57 1035.8 - 0.0
27/11:14am 13.2 3.8 4.6 56 4.0 W 43 106 23 57 1035.9 - 0.0
27/11:13am 13.2 -1.7 4.6 56 4.0 N 72 106 39 57 1035.9 - 0.0
27/11:00am 13.1 10.6 4.8 57 3.9 ENE 7 13 4 7 1036.2 - 0.0
27/10:30am 13.4 10.5 6.7 64 3.3 E 11 19 6 10 1036.3 - 0.0
27/10:00am 12.4 8.6 6.0 65 3.0 NE 15 20 8 11 1036.6 - 0.0
27/09:30am 11.6 8.5 7.1 74 2.2 ENE 13 17 7 9 1037.0 - 0.0
27/09:00am 10.5 7.5 7.6 82 1.4 ENE 13 17 7 9 1037.2 1037.4 0.0
27/08:30am 8.0 5.6 7.1 94 0.4 ENE 9 11 5 6 1037.0 - 0.0
27/08:05am 6.6 4.7 6.5 99 0.0 NE 6 106 3 57 1036.7 - 0.0
27/08:00am 6.2 -14.5 6.1 99 0.0 NE 104 106 56 57 1036.7 - 0.0
27/07:58am 6.2 -14.5 6.1 99 0.0 NE 104 106 56 57 1036.7 - 0.0
27/07:51am 5.7 -15.0 5.7 100 0.0 N 104 106 56 57 1036.6 - 0.0
27/07:30am 3.4 -17.8 3.3 99 0.0 WNW 104 106 56 57 1036.3 - 0.0
27/07:00am 1.8 -18.9 1.8 100 0.0 WNW 100 104 54 56 1036.1 - 0.0
27/06:53am 1.6 -17.0 1.6 100 0.0 WNW 89 102 48 55 1036.0 - 0.0
27/06:37am 0.2 -4.6 0.1 99 0.0 WNW 15 113 8 61 1035.8 - 0.0
27/06:30am 0.2 -21.5 0.1 99 0.0 NNW 104 106 56 57 1035.7 - 0.0
27/06:19am 0.7 -20.6 0.6 99 0.0 NW 102 104 55 56 1035.5 - 0.0
27/06:18am 0.6 -13.3 0.5 99 0.0 NW 63 104 34 56 1035.6 - 0.0
27/06:00am 0.7 -2.5 0.6 99 0.0 W 7 9 4 5 1035.6 1035.8 0.0
27/05:49am 0.2 -8.4 0.1 99 0.0 W 35 104 19 56 1035.6 - 0.0
27/05:42am 0.5 -20.8 0.4 99 0.0 W 102 106 55 57 1035.5 - 0.0
27/05:41am 0.6 -20.7 0.5 99 0.0 WNW 102 106 55 57 1035.5 - 0.0
27/05:30am 0.3 -21.4 0.0 98 0.1 N 104 106 56 57 1035.3 - 0.0
27/05:10am 0.8 -20.1 0.7 99 0.0 N 100 104 54 56 1035.0 - 0.0
27/05:00am 0.9 -2.3 0.6 98 0.1 N 7 7 4 4 1034.9 - 0.0
27/04:30am 1.8 -1.1 1.7 99 0.0 N 6 7 3 4 1034.8 - 0.0
27/04:00am 0.7 -2.6 0.4 98 0.1 N 7 7 4 4 1034.7 - 0.0
27/03:30am 1.7 -1.4 1.6 99 0.0 N 7 7 4 4 1034.6 - 0.0
27/03:05am 0.7 -9.0 0.3 97 0.1 NNE 41 106 22 57 1034.4 - 0.0
27/03:03am 0.8 -20.9 0.4 97 0.1 NNE 104 106 56 57 1034.4 - 0.0
27/03:00am 1.0 -20.6 0.7 98 0.1 ENE 104 106 56 57 1034.4 1034.6 0.0
27/02:42am 1.4 -20.2 1.1 98 0.1 ENE 104 106 56 57 1034.4 - 0.0
27/02:36am 1.7 -19.8 1.4 98 0.1 N 104 106 56 57 1034.4 - 0.0
27/02:35am 1.6 -13.9 1.3 98 0.1 N 72 106 39 57 1034.4 - 0.0
27/02:30am 1.4 -1.7 1.1 98 0.1 N 7 13 4 7 1034.5 - 0.0
27/02:00am 4.4 1.8 4.1 98 0.1 E 7 7 4 4 1034.6 - 0.0
27/01:30am 3.2 0.3 2.8 97 0.2 E 7 9 4 5 1034.5 - 0.0
27/01:21am 3.2 0.0 2.8 97 0.2 E 9 107 5 58 1034.6 - 0.0
27/01:00am 2.9 -18.5 2.2 95 0.3 ENE 104 106 56 57 1034.8 - 0.0
27/12:30am 3.9 -17.3 3.3 96 0.2 ENE 104 106 56 57 1034.7 - 0.0
27/12:00am 3.2 -18.2 2.3 94 0.4 ENE 104 106 56 57 1034.8 1035.0 0.0
 
Date/Time
WST
Temp
°C
App
Temp
°C
Dew
Point
Rel
Hum
%
Delta-T
°C
Wind Press
QNH
hPa
Press
MSL
hPa
Rain
since 9 am
mm
Dir
 
Spd
km/h
Gust
km/h
Spd
kts
Gust
kts
26/11:35pm 3.5 -18.2 2.6 94 0.4 ENE 106 106 57 57 1034.6 - 0.0
26/11:30pm 3.5 0.6 2.5 93 0.4 ENE 7 13 4 7 1034.6 - 0.0
26/11:00pm 4.3 1.7 3.3 93 0.4 ENE 6 7 3 4 1034.6 - 0.0
26/10:30pm 4.9 1.1 3.7 92 0.5 ESE 13 13 7 7 1034.5 - 0.0
26/10:00pm 5.2 1.0 3.9 91 0.6 SE 15 15 8 8 1034.2 - 0.0
26/09:30pm 5.7 2.3 4.2 90 0.6 SE 11 13 6 7 1034.3 - 0.0
26/09:00pm 6.6 3.7 4.9 89 0.7 SSE 9 9 5 5 1034.3 1034.5 0.0
26/08:30pm 6.9 3.7 4.9 87 0.9 SE 11 13 6 7 1034.1 - 0.0
26/08:00pm 7.9 5.6 5.7 86 1.0 SE 7 9 4 5 1034.1 - 0.0
26/07:30pm 8.4 5.7 5.7 83 1.2 SE 9 13 5 7 1033.7 - 0.0
26/07:00pm 9.1 5.4 6.4 83 1.3 SSE 15 20 8 11 1033.3 - 0.0
26/06:30pm 9.9 6.6 6.4 79 1.6 SSE 13 17 7 9 1032.8 - 0.0
26/06:00pm 11.1 7.1 6.8 75 2.0 SSE 17 24 9 13 1032.2 1032.3 0.0
26/05:30pm 12.0 7.7 6.9 71 2.5 SSE 19 26 10 14 1031.7 - 0.0
26/05:00pm 13.0 8.4 6.4 64 3.2 S 20 28 11 15 1031.1 - 0.0
26/04:30pm 13.6 9.8 6.0 60 3.6 S 15 20 8 11 1030.9 - 0.0
26/04:00pm 14.0 9.9 6.1 59 3.8 S 17 22 9 12 1030.6 - 0.0
26/03:30pm 14.5 10.0 6.8 60 3.8 S 20 30 11 16 1030.3 - 0.0
26/03:00pm 14.9 10.1 5.7 54 4.4 S 20 28 11 15 1029.9 1030.1 0.0
26/02:30pm 15.1 10.6 6.1 55 4.4 S 19 26 10 14 1029.8 - 0.0
26/02:00pm 15.4 10.7 5.9 53 4.6 SSW 20 28 11 15 1029.8 - 0.0
26/01:30pm 15.1 11.0 6.1 55 4.4 SSW 17 26 9 14 1029.7 - 0.0
26/01:00pm 15.4 10.7 5.9 53 4.6 SW 20 32 11 17 1029.7 - 0.0
26/12:30pm 14.5 10.8 6.3 58 4.0 SSW 15 22 8 12 1029.8 - 0.0
26/12:00pm 14.4 9.4 6.3 58 3.9 SSW 22 32 12 17 1030.1 1030.3 0.0
26/11:30am 14.8 11.1 6.4 57 4.1 SW 15 26 8 14 1030.3 - 0.0
26/11:00am 14.7 11.3 7.7 63 3.5 S 15 20 8 11 1030.6 - 0.0
26/10:30am 14.7 12.2 8.0 64 3.4 SW 11 17 6 9 1030.8 - 0.0
26/10:00am 13.6 10.7 8.0 69 2.8 S 13 17 7 9 1031.0 - 0.0
26/09:30am 13.0 10.2 8.7 75 2.2 SW 13 19 7 10 1031.0 - 0.0
26/09:00am 12.3 10.1 9.3 82 1.5 SW 11 15 6 8 1030.8 1031.0 0.0
26/08:30am 11.8 9.7 9.7 87 1.1 WSW 11 15 6 8 1030.4 - 0.0
26/08:00am 10.3 8.6 9.8 97 0.3 W 9 11 5 6 1030.1 - 0.0
26/07:30am 9.4 7.1 9.1 98 0.1 WSW 11 15 6 8 1029.7 - 0.0
26/07:00am 8.9 6.1 8.5 97 0.2 WSW 13 15 7 8 1029.3 - 0.0
26/06:30am 8.5 4.7 7.6 94 0.4 SW 17 20 9 11 1029.2 - 0.0
26/06:00am 8.1 4.8 6.6 90 0.7 WSW 13 15 7 8 1028.7 1028.9 0.0
26/05:30am 7.5 3.7 6.0 90 0.7 W 15 15 8 8 1028.4 - 0.0
26/05:00am 7.4 4.0 6.0 91 0.6 W 13 15 7 8 1027.9 - 0.0
26/04:30am 6.9 3.4 5.4 90 0.7 WNW 13 15 7 8 1027.5 - 0.0
26/04:00am 7.5 4.0 5.6 88 0.9 W 13 15 7 8 1027.2 - 0.0
26/03:30am 8.2 5.3 6.3 88 0.9 NNW 11 13 6 7 1026.8 - 0.0
26/03:00am 8.7 6.3 7.2 90 0.7 W 9 11 5 6 1026.9 1027.0 0.0
26/02:30am 8.4 5.9 6.5 88 0.9 WNW 9 11 5 6 1026.7 - 0.0
26/02:00am 8.4 5.5 6.4 87 0.9 WSW 11 13 6 7 1026.7 - 0.0
26/01:30am 8.3 5.7 6.3 87 0.9 W 9 11 5 6 1026.5 - 0.0
26/01:00am 8.3 5.7 6.3 87 0.9 WSW 9 9 5 5 1026.4 - 0.0
26/12:30am 8.4 5.1 6.2 86 1.0 SW 13 15 7 8 1026.2 - 0.0
26/12:00am 8.2 4.4 5.7 84 1.1 SW 15 17 8 9 1025.9 1026.0 0.0
 
Date/Time
WST
Temp
°C
App
Temp
°C
Dew
Point
Rel
Hum
%
Delta-T
°C
Wind Press
QNH
hPa
Press
MSL
hPa
Rain
since 9 am
mm
Dir
 
Spd
km/h
Gust
km/h
Spd
kts
Gust
kts
25/11:30pm 7.1 2.5 3.7 79 1.5 WSW 17 20 9 11 1025.8 - 0.0
25/11:00pm 6.4 1.5 2.3 75 1.7 W 17 20 9 11 1025.7 - 0.0
25/10:30pm 6.8 1.9 2.1 72 1.9 W 17 19 9 10 1025.7 - 0.0
25/10:00pm 6.8 1.5 1.7 70 2.1 W 19 20 10 11 1025.6 - 0.0
25/09:30pm 7.2 2.3 1.7 68 2.3 W 17 20 9 11 1025.4 - 0.0
25/09:00pm 6.8 1.9 1.7 70 2.1 W 17 19 9 10 1025.3 1025.4 0.0
25/08:30pm 7.2 2.6 1.7 68 2.3 W 15 17 8 9 1025.4 - 0.0
25/08:00pm 8.5 3.6 1.9 63 2.8 WNW 17 19 9 10 1025.2 - 0.0
25/07:30pm 9.1 4.2 2.0 61 3.0 WNW 17 19 9 10 1025.1 - 0.0
25/07:00pm 9.9 4.7 2.3 59 3.2 WNW 19 20 10 11 1024.7 - 0.0
25/06:30pm 9.8 5.0 2.4 60 3.2 WNW 17 17 9 9 1023.6 - 0.0

Other Formats:

Comma delimited format used in spreadsheet applications
http://www.bom.gov.au/fwo/IDW60801/IDW60801.95646.axf

JavaScript Object Notation format (JSON) in row-major order
http://www.bom.gov.au/fwo/IDW60801/IDW60801.95646.json